Time;durP1;ratioP1;P1;durP2;ratioP2;P2;SDS_P1;SDS_P2;PMS_P1;PMS_P2;Temp;Humidity;BMP_temperature;BMP_pressure;BME280_temperature;BME280_humidity;BME280_pressure;Samples;Min_cycle;Max_cycle;Signal;HPM_P1;HPM_P2
2024/01/21 00:00:48;;;;;;;87.68;33.88;;;-4.40;99.90;;;;;;4985044;28;20023;-90
2024/01/21 00:03:17;;;;;;;92.78;38.53;;;-4.30;99.90;;;;;;4984970;28;20034;-89
2024/01/21 00:05:43;;;;;;;104.55;38.42;;;-4.30;99.90;;;;;;4985056;28;20054;-91
2024/01/21 00:08:08;;;;;;;107.05;40.17;;;-4.40;99.90;;;;;;4975489;28;20026;-91
2024/01/21 00:10:34;;;;;;;108.93;37.63;;;-4.30;99.90;;;;;;4987953;28;20023;-90
2024/01/21 00:12:59;;;;;;;106.20;37.85;;;-4.40;99.90;;;;;;4983571;28;20023;-90
2024/01/21 00:15:26;;;;;;;108.72;39.42;;;-4.40;99.90;;;;;;4985347;28;20027;-91
2024/01/21 00:17:52;;;;;;;102.75;38.92;;;-4.40;99.90;;;;;;4980155;28;20034;-90
2024/01/21 00:20:18;;;;;;;103.85;38.00;;;-4.40;99.90;;;;;;4979113;28;20018;-90
2024/01/21 00:22:43;;;;;;;102.95;34.88;;;-4.40;99.90;;;;;;4983859;28;20397;-91
2024/01/21 00:25:09;;;;;;;100.90;38.38;;;-4.40;99.90;;;;;;4984512;28;20023;-91
2024/01/21 00:27:36;;;;;;;108.10;40.55;;;-4.30;99.90;;;;;;4985070;28;20031;-92
2024/01/21 00:30:03;;;;;;;97.47;37.13;;;-4.40;99.90;;;;;;4979473;28;20027;-91
2024/01/21 00:32:28;;;;;;;100.72;36.47;;;-4.40;99.90;;;;;;4979229;28;20027;-92
2024/01/21 00:34:54;;;;;;;107.72;39.22;;;-4.30;99.90;;;;;;4977444;28;20034;-88
2024/01/21 00:37:19;;;;;;;86.78;36.25;;;-4.20;99.90;;;;;;4974707;28;20030;-91
2024/01/21 00:39:45;;;;;;;96.78;34.22;;;-4.30;99.90;;;;;;4979713;28;20517;-90
2024/01/21 00:42:11;;;;;;;99.00;34.55;;;-4.30;99.90;;;;;;4983164;28;20030;-90
2024/01/21 00:44:37;;;;;;;99.13;37.83;;;-4.20;99.90;;;;;;4983508;28;20034;-89
2024/01/21 00:47:03;;;;;;;88.72;33.55;;;-4.20;99.90;;;;;;4983307;28;20031;-90
2024/01/21 00:49:29;;;;;;;96.32;37.53;;;-4.20;99.90;;;;;;4975077;28;20034;-89
2024/01/21 00:51:58;;;;;;;96.40;37.42;;;-4.30;99.90;;;;;;4981338;28;20050;-89
2024/01/21 00:54:27;;;;;;;96.80;34.83;;;-4.30;99.90;;;;;;4964514;28;20027;-91
2024/01/21 00:56:53;;;;;;;99.05;34.55;;;-4.20;99.90;;;;;;4979120;28;20027;-88
2024/01/21 00:59:18;;;;;;;96.97;34.30;;;-4.20;99.90;;;;;;4979629;28;20041;-90
2024/01/21 01:01:44;;;;;;;93.13;31.08;;;-4.20;99.90;;;;;;4973145;28;20055;-90
2024/01/21 01:04:10;;;;;;;92.35;33.65;;;-4.20;99.90;;;;;;4980182;28;20059;-90
2024/01/21 01:06:35;;;;;;;90.03;33.20;;;-4.20;99.90;;;;;;4982865;28;20027;-90
2024/01/21 01:09:01;;;;;;;92.03;34.70;;;-4.30;99.90;;;;;;4983248;28;20027;-89
2024/01/21 01:11:27;;;;;;;109.53;32.45;;;-4.30;99.90;;;;;;4978310;28;20054;-91
2024/01/21 01:13:53;;;;;;;93.13;32.78;;;-4.10;99.90;;;;;;4982117;28;20029;-89
2024/01/21 01:16:19;;;;;;;96.15;30.88;;;-4.20;99.90;;;;;;4973065;28;20082;-90
2024/01/21 01:18:44;;;;;;;73.07;26.50;;;-4.20;99.90;;;;;;4975224;28;20031;-90
2024/01/21 01:21:10;;;;;;;76.50;27.33;;;-4.20;99.90;;;;;;4976269;28;20131;-90
2024/01/21 01:23:36;;;;;;;84.38;26.92;;;-4.30;99.90;;;;;;4982792;28;20109;-91
2024/01/21 01:26:02;;;;;;;76.50;25.08;;;-4.30;99.90;;;;;;4974838;28;20027;-90
2024/01/21 01:28:28;;;;;;;56.17;20.83;;;-4.30;99.90;;;;;;4976604;28;20032;-90
2024/01/21 01:30:53;;;;;;;74.20;28.42;;;-4.30;99.90;;;;;;4985535;28;20084;-90
2024/01/21 01:33:19;;;;;;;75.53;27.33;;;-4.40;99.90;;;;;;4983265;28;20023;-90
2024/01/21 01:35:45;;;;;;;72.65;26.90;;;-4.40;99.90;;;;;;4982703;28;20027;-89
2024/01/21 01:38:13;;;;;;;84.35;27.92;;;-4.40;99.90;;;;;;4983603;28;20019;-88
2024/01/21 01:40:38;;;;;;;84.15;29.23;;;-4.40;99.90;;;;;;4972529;28;20142;-89
2024/01/21 01:43:04;;;;;;;75.57;24.23;;;-4.50;99.90;;;;;;4968291;28;20043;-90
2024/01/21 01:45:30;;;;;;;79.40;28.42;;;-4.50;99.90;;;;;;4981889;28;20043;-89
2024/01/21 01:47:59;;;;;;;82.70;29.23;;;-4.50;99.90;;;;;;4975161;28;20122;-89
2024/01/21 01:50:26;;;;;;;76.03;26.88;;;-4.50;99.90;;;;;;4981949;28;20389;-90
2024/01/21 01:52:52;;;;;;;77.82;27.30;;;-4.50;99.90;;;;;;4982667;28;20019;-87
2024/01/21 01:55:22;;;;;;;72.07;27.38;;;-4.40;99.90;;;;;;4974358;28;20666;-89
2024/01/21 01:57:48;;;;;;;78.78;27.30;;;-4.40;99.90;;;;;;4983237;28;20457;-90
2024/01/21 02:00:14;;;;;;;75.18;27.35;;;-4.40;99.90;;;;;;4981493;28;20034;-93
2024/01/21 02:02:43;;;;;;;77.10;28.45;;;-4.50;99.90;;;;;;4981216;28;20054;-89
2024/01/21 02:05:10;;;;;;;78.85;25.60;;;-4.50;99.90;;;;;;4982186;28;20027;-90
2024/01/21 02:07:36;;;;;;;71.65;26.75;;;-4.50;99.90;;;;;;4982124;28;20119;-89
2024/01/21 02:10:02;;;;;;;71.25;26.10;;;-4.50;99.90;;;;;;4964241;28;20291;-89
2024/01/21 02:12:28;;;;;;;77.75;26.38;;;-4.40;99.90;;;;;;4974713;28;20095;-90
2024/01/21 02:14:54;;;;;;;85.15;27.88;;;-4.40;99.90;;;;;;4975586;28;20019;-89
2024/01/21 02:17:19;;;;;;;84.75;28.35;;;-4.40;99.90;;;;;;4977558;28;20054;-88
2024/01/21 02:19:45;;;;;;;77.75;26.08;;;-4.40;99.90;;;;;;4983412;28;20266;-89
2024/01/21 02:22:12;;;;;;;78.03;27.17;;;-4.40;99.90;;;;;;4996377;28;20449;-90
2024/01/21 02:24:38;;;;;;;91.00;28.30;;;-4.40;99.90;;;;;;4982691;28;20113;-92
2024/01/21 02:27:04;;;;;;;72.78;27.20;;;-4.40;99.90;;;;;;4982554;28;20031;-89
2024/01/21 02:29:30;;;;;;;77.63;27.50;;;-4.40;99.90;;;;;;4982774;28;20663;-89
2024/01/21 02:31:58;;;;;;;87.70;30.42;;;-4.30;99.90;;;;;;4982747;28;20023;-90
2024/01/21 02:34:24;;;;;;;67.18;27.00;;;-4.30;99.90;;;;;;4983072;28;20031;-89
2024/01/21 02:36:50;;;;;;;81.10;26.77;;;-4.30;99.90;;;;;;4981930;28;20026;-89
2024/01/21 02:39:15;;;;;;;69.13;25.33;;;-4.30;99.90;;;;;;4980744;28;20045;-90
2024/01/21 02:41:41;;;;;;;72.55;25.98;;;-4.30;99.90;;;;;;4978238;28;20034;-89
2024/01/21 02:44:07;;;;;;;79.10;24.90;;;-4.30;99.90;;;;;;4983492;28;20027;-92
2024/01/21 02:46:44;;;;;;;72.85;26.10;;;-4.40;99.90;;;;;;4984402;28;20023;-91
2024/01/21 02:49:09;;;;;;;74.20;26.42;;;-4.40;99.90;;;;;;4982356;28;20027;-90
2024/01/21 02:51:35;;;;;;;64.43;22.67;;;-4.40;99.90;;;;;;4982274;28;20038;-89
2024/01/21 02:54:01;;;;;;;69.20;27.58;;;-4.40;99.90;;;;;;4973931;28;20042;-89
2024/01/21 02:56:26;;;;;;;62.42;23.38;;;-4.40;99.90;;;;;;4984415;28;20640;-87
2024/01/21 02:58:53;;;;;;;66.47;25.75;;;-4.50;99.90;;;;;;4982588;28;20026;-89
2024/01/21 03:01:19;;;;;;;57.35;22.77;;;-4.50;99.90;;;;;;4984477;28;20039;-91
2024/01/21 03:03:45;;;;;;;80.80;26.98;;;-4.50;99.90;;;;;;4985816;28;20054;-89
2024/01/21 03:06:11;;;;;;;76.07;22.67;;;-4.50;99.90;;;;;;4986047;28;20033;-91
2024/01/21 03:08:37;;;;;;;68.82;24.02;;;-4.60;99.90;;;;;;4980573;28;20026;-91
2024/01/21 03:11:03;;;;;;;65.47;23.83;;;-4.60;99.90;;;;;;4975155;28;20033;-88
2024/01/21 03:13:29;;;;;;;72.38;25.80;;;-4.60;99.90;;;;;;4969939;28;20022;-89
2024/01/21 03:15:55;;;;;;;62.92;22.23;;;-4.60;99.90;;;;;;4985342;28;20027;-91
2024/01/21 03:18:21;;;;;;;63.47;22.52;;;-4.60;99.90;;;;;;5001060;28;20026;-89
2024/01/21 03:20:47;;;;;;;65.68;23.90;;;-4.60;99.90;;;;;;4986887;28;20528;-90
2024/01/21 03:23:13;;;;;;;58.88;21.92;;;-4.60;99.90;;;;;;4985879;28;20034;-90
2024/01/21 03:25:39;;;;;;;61.22;23.40;;;-4.70;99.90;;;;;;4988014;28;20054;-92
2024/01/21 03:28:05;;;;;;;65.68;22.08;;;-4.80;99.90;;;;;;4990649;28;20060;-89
2024/01/21 03:30:31;;;;;;;70.68;24.10;;;-4.70;99.90;;;;;;5001251;28;20042;-90
2024/01/21 03:32:57;;;;;;;62.53;23.73;;;-4.60;99.90;;;;;;4992492;28;20042;-89
2024/01/21 03:35:22;;;;;;;75.53;25.02;;;-4.60;99.90;;;;;;4999394;28;20031;-89
2024/01/21 03:37:48;;;;;;;68.18;26.55;;;-4.60;99.90;;;;;;5000809;28;20027;-91
2024/01/21 03:40:14;;;;;;;75.07;24.17;;;-4.60;99.90;;;;;;5014950;28;20039;-90
2024/01/21 03:42:40;;;;;;;86.03;26.17;;;-4.60;99.90;;;;;;5000116;28;20025;-94
2024/01/21 03:45:06;;;;;;;75.20;24.17;;;-4.60;99.90;;;;;;4995624;28;20516;-93
2024/01/21 03:47:31;;;;;;;65.40;22.98;;;-4.60;99.90;;;;;;4992718;28;20027;-90
2024/01/21 03:49:58;;;;;;;64.28;25.40;;;-4.60;99.90;;;;;;5000391;28;20091;-92
2024/01/21 03:52:24;;;;;;;71.00;23.92;;;-4.60;99.90;;;;;;4999657;28;20034;-91
2024/01/21 03:54:50;;;;;;;77.93;25.75;;;-4.70;99.90;;;;;;4999966;28;20019;-90
2024/01/21 03:57:15;;;;;;;73.75;25.92;;;-4.60;99.90;;;;;;4999227;28;20019;-90
2024/01/21 03:59:41;;;;;;;74.75;24.65;;;-4.70;99.90;;;;;;4994527;28;20094;-90
2024/01/21 04:02:06;;;;;;;79.40;24.23;;;-4.70;99.90;;;;;;4993361;28;20031;-90
2024/01/21 04:04:32;;;;;;;68.65;24.88;;;-4.60;99.90;;;;;;4992149;28;20022;-87
2024/01/21 04:06:58;;;;;;;84.22;25.30;;;-4.60;99.90;;;;;;4995637;28;20072;-90
2024/01/21 04:09:23;;;;;;;82.55;27.40;;;-4.70;99.90;;;;;;4987687;28;20011;-93
2024/01/21 04:11:50;;;;;;;71.45;25.42;;;-4.70;99.90;;;;;;4986132;28;20030;-89
2024/01/21 04:14:16;;;;;;;76.50;26.80;;;-4.70;99.90;;;;;;4996705;28;20249;-92
2024/01/21 04:16:41;;;;;;;71.57;25.30;;;-4.60;99.90;;;;;;4999735;28;20019;-92
2024/01/21 04:19:10;;;;;;;75.15;25.33;;;-4.70;99.90;;;;;;4996712;28;20042;-90
2024/01/21 04:21:36;;;;;;;69.40;24.25;;;-4.70;99.90;;;;;;4998233;28;20065;-89
2024/01/21 04:24:02;;;;;;;67.50;24.85;;;-4.70;99.90;;;;;;4998586;28;20034;-93
2024/01/21 04:26:30;;;;;;;73.05;27.92;;;-4.60;99.90;;;;;;4998470;28;20023;-93
2024/01/21 04:28:55;;;;;;;70.50;24.95;;;-4.70;99.90;;;;;;4991633;28;20038;-90
2024/01/21 04:31:21;;;;;;;82.55;24.35;;;-4.70;99.90;;;;;;4989462;28;20027;-90
2024/01/21 04:33:47;;;;;;;70.10;26.08;;;-4.70;99.90;;;;;;4982547;28;20043;-92
2024/01/21 04:36:20;;;;;;;61.67;22.92;;;-4.70;99.90;;;;;;4985637;28;20047;-91
2024/01/21 04:38:46;;;;;;;72.07;24.48;;;-4.70;99.90;;;;;;4987188;28;20065;-89
2024/01/21 04:41:13;;;;;;;67.95;24.50;;;-4.70;99.90;;;;;;4978206;28;20080;-90
2024/01/21 04:43:38;;;;;;;78.07;27.27;;;-4.60;99.90;;;;;;4985427;28;20027;-91
2024/01/21 04:46:04;;;;;;;74.50;25.85;;;-4.60;99.90;;;;;;4986678;28;20417;-90
2024/01/21 04:48:30;;;;;;;73.88;26.45;;;-4.60;99.90;;;;;;4986418;28;20033;-91
2024/01/21 04:50:55;;;;;;;73.07;24.02;;;-4.60;99.90;;;;;;4976087;28;20027;-89
2024/01/21 04:53:21;;;;;;;74.32;24.27;;;-4.70;99.90;;;;;;4978488;28;20019;-87
2024/01/21 04:55:47;;;;;;;71.88;25.83;;;-4.70;99.90;;;;;;4987069;28;20027;-88
2024/01/21 04:58:13;;;;;;;85.80;26.48;;;-4.70;99.90;;;;;;4985906;28;20019;-91
2024/01/21 05:00:38;;;;;;;76.65;24.42;;;-4.70;99.90;;;;;;4985517;28;20058;-90
2024/01/21 05:03:04;;;;;;;81.85;29.63;;;-4.70;99.90;;;;;;4978259;28;20050;-90
2024/01/21 05:05:30;;;;;;;79.60;24.85;;;-4.70;99.90;;;;;;4995525;28;20037;-88
2024/01/21 05:07:55;;;;;;;74.88;27.67;;;-4.60;99.90;;;;;;4987921;28;20019;-91
2024/01/21 05:10:22;;;;;;;80.65;27.90;;;-4.70;99.90;;;;;;4998865;28;20046;-90
2024/01/21 05:12:48;;;;;;;75.90;24.63;;;-4.80;99.90;;;;;;4997841;28;20015;-91
2024/01/21 05:15:13;;;;;;;77.13;25.52;;;-4.90;99.90;;;;;;4989471;28;20042;-90
2024/01/21 05:17:39;;;;;;;61.45;24.52;;;-4.90;99.90;;;;;;4990643;28;20059;-92
2024/01/21 05:20:08;;;;;;;71.97;24.55;;;-4.90;99.90;;;;;;4998183;28;20038;-92
2024/01/21 05:22:34;;;;;;;73.85;27.15;;;-4.90;99.90;;;;;;4988189;28;20027;-93
2024/01/21 05:25:00;;;;;;;74.95;27.38;;;-5.00;99.90;;;;;;4986898;28;20061;-92
2024/01/21 05:27:26;;;;;;;68.13;25.17;;;-5.00;99.90;;;;;;4990313;28;20019;-90
2024/01/21 05:29:51;;;;;;;82.38;25.83;;;-5.10;99.90;;;;;;4990972;28;20038;-91
2024/01/21 05:32:17;;;;;;;71.25;25.85;;;-5.10;99.90;;;;;;4987126;28;20049;-93
2024/01/21 05:34:43;;;;;;;74.30;22.88;;;-5.10;99.90;;;;;;4991756;28;20098;-92
2024/01/21 05:37:08;;;;;;;73.10;24.60;;;-5.10;99.90;;;;;;4984597;28;20059;-91
2024/01/21 05:39:34;;;;;;;77.30;25.45;;;-5.10;99.90;;;;;;4979028;28;20040;-89
2024/01/21 05:42:04;;;;;;;69.65;24.88;;;-5.10;99.90;;;;;;4979996;28;20042;-89
2024/01/21 05:44:33;;;;;;;63.97;23.90;;;-5.10;99.90;;;;;;4983903;28;20026;-91
2024/01/21 05:46:59;;;;;;;75.38;25.80;;;-5.10;99.90;;;;;;4983023;28;20019;-88
2024/01/21 05:49:29;;;;;;;76.32;26.70;;;-5.20;99.90;;;;;;4982992;28;20023;-89
2024/01/21 05:51:54;;;;;;;75.13;24.58;;;-5.20;99.90;;;;;;4983725;28;20022;-88
2024/01/21 05:54:20;;;;;;;77.65;22.67;;;-5.20;99.90;;;;;;4978376;28;20049;-89
2024/01/21 05:56:46;;;;;;;64.13;26.67;;;-5.30;99.90;;;;;;4978387;28;20019;-89
2024/01/21 05:59:16;;;;;;;75.30;24.25;;;-5.30;99.90;;;;;;4971828;28;20058;-88
2024/01/21 06:01:42;;;;;;;79.75;26.17;;;-5.40;99.90;;;;;;4973435;28;20037;-87
2024/01/21 06:04:08;;;;;;;66.40;24.40;;;-5.40;99.90;;;;;;4981069;28;20019;-89
2024/01/21 06:06:33;;;;;;;63.13;24.02;;;-5.50;99.90;;;;;;4981018;28;20037;-89
2024/01/21 06:08:59;;;;;;;75.63;27.48;;;-5.50;99.90;;;;;;4975353;28;20024;-90
2024/01/21 06:11:26;;;;;;;61.42;20.40;;;-5.40;99.90;;;;;;4974023;28;20440;-89
2024/01/21 06:13:51;;;;;;;71.38;24.10;;;-5.50;99.90;;;;;;4983709;28;20074;-89
2024/01/21 06:16:17;;;;;;;61.72;22.20;;;-5.50;99.90;;;;;;4981189;28;20030;-90
2024/01/21 06:18:43;;;;;;;74.68;28.73;;;-5.50;99.90;;;;;;4969499;28;20088;-89
2024/01/21 06:21:09;;;;;;;64.78;26.23;;;-5.40;99.90;;;;;;4982514;28;20099;-91
2024/01/21 06:23:35;;;;;;;74.18;24.10;;;-5.40;99.90;;;;;;4977955;28;20054;-90
2024/01/21 06:26:00;;;;;;;73.90;26.25;;;-5.40;99.90;;;;;;4979756;28;20034;-90
2024/01/21 06:28:26;;;;;;;67.57;24.58;;;-5.40;99.90;;;;;;4983192;28;20018;-90
2024/01/21 06:30:55;;;;;;;68.45;24.90;;;-5.40;99.90;;;;;;4983234;28;20105;-90
2024/01/21 06:33:20;;;;;;;;;;;-5.30;99.90;;;;;;4997923;28;20202;-88
2024/01/21 06:35:46;;;;;;;71.68;23.05;;;-5.30;99.90;;;;;;4984949;28;20468;-89
2024/01/21 06:38:12;;;;;;;67.38;22.98;;;-5.20;99.90;;;;;;4985262;28;20030;-90
2024/01/21 06:40:37;;;;;;;63.63;21.20;;;-5.20;99.90;;;;;;4986350;28;20430;-90
2024/01/21 06:43:03;;;;;;;64.68;27.55;;;-5.20;99.90;;;;;;4987378;28;20099;-89
2024/01/21 06:45:29;;;;;;;77.55;23.75;;;-5.20;99.90;;;;;;4983194;28;20067;-91
2024/01/21 06:47:55;;;;;;;84.13;27.00;;;-5.20;99.90;;;;;;5015667;28;20015;-90
2024/01/21 06:50:21;;;;;;;66.80;25.05;;;-5.30;99.90;;;;;;4982403;28;20283;-92
2024/01/21 06:52:47;;;;;;;66.75;23.55;;;-5.20;99.90;;;;;;4984466;28;20047;-92
2024/01/21 06:55:13;;;;;;;80.95;28.35;;;-5.20;99.90;;;;;;5013220;28;20022;-91
2024/01/21 06:57:39;;;;;;;80.28;26.40;;;-5.20;99.90;;;;;;4987367;28;20074;-90
2024/01/21 07:00:06;;;;;;;80.03;25.58;;;-5.20;99.90;;;;;;4994610;28;20063;-90
2024/01/21 07:02:37;;;;;;;72.07;23.98;;;-5.20;99.90;;;;;;4993793;28;20635;-92
2024/01/21 07:05:03;;;;;;;70.60;22.73;;;-5.20;99.90;;;;;;4991882;28;20019;-92
2024/01/21 07:07:31;;;;;;;74.90;27.00;;;-5.20;99.90;;;;;;4973559;28;20039;-92
2024/01/21 07:09:57;;;;;;;68.18;25.63;;;-5.20;99.90;;;;;;5005608;28;20082;-93
2024/01/21 07:12:25;;;;;;;67.07;24.63;;;-5.20;99.90;;;;;;5008871;28;20034;-93
2024/01/21 07:14:51;;;;;;;67.10;25.75;;;-5.20;99.90;;;;;;4985290;28;20024;-94
2024/01/21 07:17:16;;;;;;;75.25;24.60;;;-5.20;99.90;;;;;;4995538;28;20046;-91
2024/01/21 07:19:42;;;;;;;72.25;25.17;;;-5.40;99.90;;;;;;4986298;28;20146;-90
2024/01/21 07:22:08;;;;;;;73.68;22.92;;;-5.40;99.90;;;;;;4986671;28;20046;-90
2024/01/21 07:24:37;;;;;;;78.50;27.08;;;-5.40;99.90;;;;;;4985271;28;20026;-90
2024/01/21 07:27:03;;;;;;;;;;;-5.40;99.90;;;;;;4979037;28;20031;-91
2024/01/21 07:29:28;;;;;;;57.38;23.95;;;-5.50;99.90;;;;;;4985768;28;19907;-90
2024/01/21 07:31:55;;;;;;;74.30;23.38;;;-5.50;99.90;;;;;;4993561;28;20026;-89
2024/01/21 07:34:22;;;;;;;67.65;23.48;;;-5.40;99.90;;;;;;4977583;28;20025;-90
2024/01/21 07:36:48;;;;;;;56.10;23.13;;;-5.40;99.90;;;;;;4987780;28;20034;-89
2024/01/21 07:39:21;;;;;;;65.38;24.88;;;-5.40;99.90;;;;;;4986191;28;20038;-89
2024/01/21 07:41:52;;;;;;;62.38;25.27;;;-5.40;99.90;;;;;;4964046;28;20027;-91
2024/01/21 07:44:18;;;;;;;68.13;26.45;;;-5.50;99.90;;;;;;4987291;28;20050;-89
2024/01/21 07:46:43;;;;;;;64.72;26.63;;;-5.40;99.90;;;;;;4985228;28;20496;-90
2024/01/21 07:49:11;;;;;;;67.03;25.70;;;-5.50;99.90;;;;;;4979418;28;20529;-92
2024/01/21 07:51:37;;;;;;;61.42;22.42;;;-5.50;99.90;;;;;;4965964;28;20505;-89
2024/01/21 07:54:03;;;;;;;69.60;24.33;;;-5.40;99.90;;;;;;4965319;28;20031;-91
2024/01/21 07:56:29;;;;;;;73.90;24.45;;;-5.40;99.90;;;;;;4968351;28;20035;-89
2024/01/21 07:58:57;;;;;;;70.95;24.25;;;-5.40;99.90;;;;;;4967442;28;20023;-92
2024/01/21 08:01:24;;;;;;;63.05;23.90;;;-5.30;99.90;;;;;;4965120;28;20086;-91
2024/01/21 08:03:49;;;;;;;56.72;25.80;;;-5.20;99.90;;;;;;4967584;28;20381;-89
2024/01/21 08:06:15;;;;;;;66.47;25.90;;;-5.20;99.90;;;;;;4968263;28;20110;-92
2024/01/21 08:08:41;;;;;;;59.13;23.02;;;-5.30;99.90;;;;;;4974363;28;20042;-89
2024/01/21 08:11:07;;;;;;;61.75;22.73;;;-5.20;99.90;;;;;;4977271;28;20019;-91
2024/01/21 08:13:33;;;;;;;73.20;30.23;;;-5.20;99.90;;;;;;4971486;28;20447;-90
2024/01/21 08:15:59;;;;;;;67.97;23.23;;;-5.20;99.90;;;;;;4984086;28;20055;-93
2024/01/21 08:18:24;;;;;;;54.55;24.25;;;-5.20;99.90;;;;;;4973364;28;20019;-90
2024/01/21 08:20:50;;;;;;;62.90;22.90;;;-5.10;99.90;;;;;;4978355;28;20489;-91
2024/01/21 08:23:16;;;;;;;59.72;25.30;;;-5.10;99.90;;;;;;4973860;28;20169;-89
2024/01/21 08:25:42;;;;;;;58.10;26.35;;;-5.10;99.90;;;;;;4974576;28;20085;-88
2024/01/21 08:28:08;;;;;;;61.53;24.40;;;-5.10;99.90;;;;;;4981604;28;20027;-90
2024/01/21 08:30:33;;;;;;;64.32;26.10;;;-5.00;99.90;;;;;;4982532;28;20094;-89
2024/01/21 08:32:59;;;;;;;67.70;28.90;;;-5.00;99.90;;;;;;4983419;28;20015;-91
2024/01/21 08:35:28;;;;;;;64.47;28.48;;;-5.00;99.90;;;;;;4982979;28;20047;-91
2024/01/21 08:37:54;;;;;;;64.60;27.38;;;-5.10;99.90;;;;;;4980122;28;20066;-91
2024/01/21 08:40:22;;;;;;;69.63;27.27;;;-5.00;99.90;;;;;;4983827;28;20058;-90
2024/01/21 08:42:48;;;;;;;66.18;26.60;;;-5.00;99.90;;;;;;4984615;28;20042;-92
2024/01/21 08:45:14;;;;;;;57.03;26.98;;;-5.00;99.90;;;;;;4982583;28;20027;-91
2024/01/21 08:47:43;;;;;;;62.55;26.83;;;-5.00;99.90;;;;;;4978135;28;20030;-91
2024/01/21 08:50:09;;;;;;;56.60;24.23;;;-5.00;99.90;;;;;;4982263;28;20021;-89
2024/01/21 08:52:35;;;;;;;72.57;26.80;;;-4.90;99.90;;;;;;4985819;28;20019;-91
2024/01/21 08:55:01;;;;;;;62.50;23.77;;;-4.80;99.90;;;;;;4976969;28;20034;-91
2024/01/21 08:57:26;;;;;;;72.47;28.10;;;-4.80;99.90;;;;;;4983537;28;20058;-93
2024/01/21 08:59:52;;;;;;;60.42;27.52;;;-4.90;99.90;;;;;;4981105;28;20049;-90
2024/01/21 09:02:20;;;;;;;62.75;29.48;;;-4.90;99.90;;;;;;4972522;28;21042;-90
2024/01/21 09:04:46;;;;;;;63.25;28.13;;;-4.80;99.90;;;;;;4963712;28;20023;-91
2024/01/21 09:07:12;;;;;;;55.75;24.75;;;-4.70;99.90;;;;;;4979125;28;20034;-92
2024/01/21 09:09:37;;;;;;;55.47;24.13;;;-4.70;99.90;;;;;;4973118;28;20027;-90
2024/01/21 09:12:03;;;;;;;76.28;25.67;;;-4.70;99.90;;;;;;4986929;28;20024;-90
2024/01/21 09:14:29;;;;;;;66.60;25.52;;;-4.60;99.90;;;;;;4976389;28;20034;-91
2024/01/21 09:16:55;;;;;;;72.28;27.40;;;-4.60;99.90;;;;;;4968468;28;20038;-91
2024/01/21 09:19:21;;;;;;;55.63;24.85;;;-4.50;99.90;;;;;;4975832;28;20078;-91
2024/01/21 09:21:52;;;;;;;67.68;26.58;;;-4.40;99.90;;;;;;4981718;28;20030;-92
2024/01/21 09:24:18;;;;;;;53.53;27.65;;;-4.40;99.90;;;;;;4977125;28;20034;-90
2024/01/21 09:26:44;;;;;;;73.13;28.27;;;-4.30;99.90;;;;;;4968446;28;20037;-91
2024/01/21 09:29:09;;;;;;;63.00;28.13;;;-4.30;99.90;;;;;;4980327;28;20026;-92
2024/01/21 09:31:35;;;;;;;64.85;29.45;;;-4.10;99.90;;;;;;4972785;28;20018;-90
2024/01/21 09:34:04;;;;;;;64.07;30.77;;;-4.10;99.90;;;;;;4980702;28;20026;-90
2024/01/21 09:36:29;;;;;;;57.97;26.67;;;-4.00;99.90;;;;;;4964798;28;20038;-89
2024/01/21 09:38:55;;;;;;;70.45;29.23;;;-3.90;99.90;;;;;;4974113;28;20553;-89
2024/01/21 09:41:37;;;;;;;68.82;30.58;;;-3.80;99.90;;;;;;4965187;28;20051;-90
2024/01/21 09:44:03;;;;;;;56.58;27.77;;;-3.70;99.90;;;;;;4968130;28;20165;-90
2024/01/21 09:46:33;;;;;;;66.80;31.35;;;-3.70;99.90;;;;;;4963312;28;20047;-90
2024/01/21 09:49:17;;;;;;;59.80;25.35;;;-3.70;99.90;;;;;;4978152;28;20034;-90
2024/01/21 09:51:46;;;;;;;61.88;29.02;;;-3.60;99.90;;;;;;4973042;28;20019;-91
2024/01/21 09:54:12;;;;;;;51.95;22.92;;;-3.50;99.90;;;;;;4977896;28;20031;-91
2024/01/21 09:56:38;;;;;;;59.92;30.17;;;-3.40;99.90;;;;;;4964920;28;20100;-90
2024/01/21 09:59:08;;;;;;;59.38;28.10;;;-3.40;99.90;;;;;;4963527;28;20039;-91
2024/01/21 10:01:36;;;;;;;66.97;29.35;;;-3.20;99.90;;;;;;4967411;28;20359;-90
2024/01/21 10:04:02;;;;;;;69.72;31.80;;;-3.20;99.90;;;;;;4959833;28;20523;-92
2024/01/21 10:06:30;;;;;;;65.55;27.05;;;-3.20;99.90;;;;;;4967301;28;20037;-89
2024/01/21 10:09:21;;;;;;;65.78;31.98;;;-3.10;99.90;;;;;;4966980;28;20030;-91
2024/01/21 10:11:57;;;;;;;72.25;31.02;;;-3.00;99.90;;;;;;4963606;28;20043;-91
2024/01/21 10:14:26;;;;;;;68.10;31.77;;;-2.90;99.90;;;;;;4962815;28;20256;-91
2024/01/21 10:16:52;;;;;;;59.70;27.92;;;-2.90;99.90;;;;;;4959370;28;20504;-91
2024/01/21 10:19:33;;;;;;;65.28;29.05;;;-2.70;99.90;;;;;;4985569;28;20046;-92
2024/01/21 10:22:16;;;;;;;59.95;28.98;;;-2.70;99.90;;;;;;4983216;28;20482;-91
2024/01/21 10:24:44;;;;;;;53.35;25.20;;;-2.70;99.90;;;;;;4954105;28;20505;-88
2024/01/21 10:27:10;;;;;;;53.88;28.48;;;-2.70;99.90;;;;;;4978942;28;20034;-90
2024/01/21 10:29:43;;;;;;;54.72;29.27;;;-2.70;99.90;;;;;;4979823;28;20026;-89
2024/01/21 10:32:10;;;;;;;67.72;33.53;;;-2.70;99.90;;;;;;4979848;28;20146;-88
2024/01/21 10:34:52;;;;;;;70.97;32.65;;;-2.80;99.90;;;;;;4986320;28;20085;-91
2024/01/21 10:37:18;;;;;;;59.90;25.27;;;-2.90;99.90;;;;;;4977017;28;20062;-91
2024/01/21 10:39:46;;;;;;;69.97;33.33;;;-2.70;99.90;;;;;;4958698;28;20103;-91
2024/01/21 10:42:20;;;;;;;75.72;29.17;;;-2.70;99.90;;;;;;4968778;28;20039;-90
2024/01/21 10:44:46;;;;;;;59.75;26.88;;;-2.60;99.90;;;;;;4968790;28;20037;-91
2024/01/21 10:47:12;;;;;;;68.75;33.10;;;-2.50;99.90;;;;;;4977926;28;20054;-91
2024/01/21 10:49:39;;;;;;;68.65;28.38;;;-2.30;99.90;;;;;;4977938;28;20023;-88
2024/01/21 10:52:39;;;;;;;64.38;30.30;;;-2.30;99.90;;;;;;4978090;28;20015;-91
2024/01/21 10:55:06;;;;;;;55.65;27.83;;;-2.30;99.90;;;;;;4976245;28;20629;-92
2024/01/21 10:57:32;;;;;;;66.07;31.58;;;-2.30;99.90;;;;;;4977985;28;20026;-91
2024/01/21 10:59:58;;;;;;;68.60;31.27;;;-2.30;99.90;;;;;;4976911;28;20030;-90
2024/01/21 11:02:30;;;;;;;73.55;34.88;;;-2.30;99.90;;;;;;4976935;28;20042;-89
2024/01/21 11:04:56;;;;;;;72.63;32.58;;;-2.30;99.90;;;;;;4976778;28;20110;-91
2024/01/21 11:07:28;;;;;;;71.53;34.70;;;-2.40;99.90;;;;;;4979342;28;20054;-91
2024/01/21 11:09:55;;;;;;;62.70;32.40;;;-2.30;99.90;;;;;;4977619;28;20026;-88
2024/01/21 11:12:22;;;;;;;59.15;31.77;;;-2.20;99.90;;;;;;4962196;28;20058;-92
2024/01/21 11:14:48;;;;;;;68.22;32.92;;;-2.10;99.90;;;;;;4970485;28;20054;-91
2024/01/21 11:17:22;;;;;;;66.65;34.10;;;-1.90;99.90;;;;;;4971399;28;20039;-89
2024/01/21 11:19:47;;;;;;;63.70;32.03;;;-1.70;99.90;;;;;;4970837;28;20023;-89
2024/01/21 11:22:14;;;;;;;54.47;28.02;;;-1.50;99.90;;;;;;4969273;28;20446;-89
2024/01/21 11:24:40;;;;;;;60.42;28.50;;;-1.40;99.90;;;;;;4976047;28;20581;-90
2024/01/21 11:27:19;;;;;;;62.33;31.50;;;-1.40;99.90;;;;;;4981026;28;20038;-90
2024/01/21 11:29:47;;;;;;;59.20;30.58;;;-1.20;99.90;;;;;;4980366;28;20030;-88
2024/01/21 11:32:13;;;;;;;59.25;31.27;;;-0.90;99.90;;;;;;4978828;28;20027;-91
2024/01/21 11:34:44;;;;;;;61.13;30.45;;;-0.50;99.10;;;;;;4968806;28;20030;-90
2024/01/21 11:37:13;;;;;;;56.45;29.90;;;-0.20;96.30;;;;;;4960421;28;20106;-89
2024/01/21 11:39:40;;;;;;;51.53;28.70;;;0.00;93.70;;;;;;4973843;28;20031;-89
2024/01/21 11:42:06;;;;;;;57.83;28.80;;;0.20;93.70;;;;;;4976331;28;20027;-91
2024/01/21 11:44:33;;;;;;;58.72;31.17;;;0.40;92.50;;;;;;4967237;28;20050;-89
2024/01/21 11:47:04;;;;;;;56.72;29.42;;;0.50;91.60;;;;;;4984958;28;20019;-91
2024/01/21 11:49:35;;;;;;;55.92;29.75;;;0.70;92.00;;;;;;4984487;28;20174;-91
2024/01/21 11:52:06;;;;;;;55.90;28.00;;;1.00;90.30;;;;;;4977608;28;20042;-89
2024/01/21 11:54:36;;;;;;;51.13;26.40;;;1.20;88.10;;;;;;4977894;28;20062;-90
2024/01/21 11:57:02;;;;;;;54.70;30.13;;;1.30;87.40;;;;;;4978251;28;20109;-92
2024/01/21 11:59:30;;;;;;;55.15;30.05;;;1.30;87.50;;;;;;4967122;28;20035;-91
2024/01/21 12:01:57;;;;;;;56.78;27.83;;;1.30;86.30;;;;;;4963566;28;20026;-89
2024/01/21 12:04:24;;;;;;;58.72;30.33;;;1.30;88.50;;;;;;4965304;28;20047;-90
2024/01/21 12:06:52;;;;;;;49.00;27.45;;;1.40;86.10;;;;;;4980270;28;20601;-90
2024/01/21 12:09:19;;;;;;;49.72;30.42;;;1.60;88.20;;;;;;4975969;28;20047;-90
2024/01/21 12:11:47;;;;;;;51.05;28.75;;;1.90;87.40;;;;;;4973439;28;20023;-92
2024/01/21 12:14:13;;;;;;;51.13;29.27;;;2.30;85.60;;;;;;4980683;28;20567;-90
2024/01/21 12:16:41;;;;;;;55.35;30.02;;;2.00;85.60;;;;;;4981132;28;20027;-90
2024/01/21 12:19:06;;;;;;;58.40;30.90;;;2.10;86.70;;;;;;4981602;28;20110;-92
2024/01/21 12:21:33;;;;;;;48.15;27.10;;;1.90;86.80;;;;;;4982172;28;20042;-90
2024/01/21 12:24:04;;;;;;;49.05;28.20;;;2.20;87.30;;;;;;4982435;28;20606;-91
2024/01/21 12:26:30;;;;;;;48.95;28.75;;;2.60;85.80;;;;;;4972615;28;20058;-87